createdAt,value
2023-09-23T00:02:07.469Z,42.08
2023-09-23T00:07:10.693Z,42.02
2023-09-23T00:12:13.822Z,42.63
2023-09-23T00:17:16.942Z,42.72
2023-09-23T00:22:20.032Z,42.38
2023-09-23T00:27:23.429Z,42.46
2023-09-23T00:32:26.504Z,43.41
2023-09-23T00:37:31.978Z,43.14
2023-09-23T00:42:35.156Z,43.55
2023-09-23T00:47:38.233Z,43.41
2023-09-23T00:52:42.453Z,43.64
2023-09-23T00:57:47.769Z,44.21
2023-09-23T01:02:51.378Z,44.32
2023-09-23T01:07:58.148Z,44.58
2023-09-23T01:13:01.444Z,44.51
2023-09-23T01:18:05.846Z,45.03
2023-09-23T01:23:12.625Z,45.17
2023-09-23T01:28:15.753Z,45.36
2023-09-23T01:33:19.030Z,45.64
2023-09-23T01:38:22.168Z,45.80
2023-09-23T01:43:25.257Z,45.82
2023-09-23T01:48:31.318Z,45.60
2023-09-23T01:53:34.441Z,46.24
2023-09-23T01:58:37.626Z,46.50
2023-09-23T02:03:40.825Z,46.62
2023-09-23T02:08:44.346Z,46.13
2023-09-23T02:13:48.658Z,46.22
2023-09-23T02:18:52.734Z,45.82
2023-09-23T02:23:58.762Z,46.02
2023-09-23T02:29:01.879Z,46.22
2023-09-23T02:34:07.430Z,46.00
2023-09-23T02:39:17.541Z,46.07
2023-09-23T02:44:21.728Z,46.16
2023-09-23T02:49:24.995Z,46.15
2023-09-23T02:54:28.424Z,45.80
2023-09-23T02:59:32.841Z,45.80
2023-09-23T03:04:36.604Z,46.02
2023-09-23T03:09:45.429Z,45.80
2023-09-23T03:14:53.292Z,45.88
2023-09-23T03:19:56.376Z,46.12
2023-09-23T03:24:59.568Z,45.63
2023-09-23T03:30:05.004Z,45.99
2023-09-23T03:35:15.418Z,46.28
2023-09-23T03:40:25.969Z,45.59
2023-09-23T03:45:33.639Z,45.57
2023-09-23T03:50:36.768Z,46.19
2023-09-23T03:55:41.044Z,45.86
2023-09-23T04:00:45.272Z,45.88
2023-09-23T04:05:56.869Z,46.35
2023-09-23T04:11:05.890Z,46.43
2023-09-23T04:16:09.113Z,46.26
2023-09-23T04:21:12.662Z,46.31
2023-09-23T04:26:16.233Z,45.90
2023-09-23T04:31:20.421Z,45.89
2023-09-23T04:36:23.630Z,46.04
2023-09-23T04:41:26.760Z,46.33
2023-09-23T04:46:34.004Z,46.42
2023-09-23T04:51:37.243Z,46.24
2023-09-23T04:56:43.312Z,46.21
2023-09-23T05:01:47.556Z,46.20
2023-09-23T05:06:52.315Z,46.21
2023-09-23T05:11:56.515Z,46.46
2023-09-23T05:17:00.849Z,46.19
2023-09-23T05:22:05.294Z,45.92
2023-09-23T05:27:08.366Z,45.70
2023-09-23T05:32:12.434Z,45.53
2023-09-23T05:37:15.791Z,45.37
2023-09-23T05:42:24.586Z,44.90
2023-09-23T05:47:27.778Z,44.39
2023-09-23T05:52:31.669Z,44.27
2023-09-23T05:57:40.271Z,43.84
2023-09-23T06:02:46.693Z,43.84
2023-09-23T06:07:50.314Z,43.46
2023-09-23T06:12:53.514Z,43.06
2023-09-23T06:17:57.038Z,42.71
2023-09-23T06:23:00.243Z,41.99
2023-09-23T06:28:03.366Z,41.62
2023-09-23T06:33:06.508Z,41.00
2023-09-23T06:38:09.774Z,39.40
2023-09-23T06:43:13.721Z,38.29
2023-09-23T06:48:16.791Z,38.02
2023-09-23T06:53:19.933Z,37.59
2023-09-23T06:58:23.341Z,36.47
2023-09-23T07:03:27.076Z,36.57
2023-09-23T07:08:30.395Z,36.02
2023-09-23T07:13:33.569Z,35.73
2023-09-23T07:18:37.484Z,34.57
2023-09-23T07:23:40.913Z,34.10
2023-09-23T07:28:44.004Z,33.49
2023-09-23T07:33:47.365Z,33.11
2023-09-23T07:38:50.579Z,32.37
2023-09-23T07:43:53.765Z,31.81
2023-09-23T07:48:57.293Z,31.09
2023-09-23T07:54:00.432Z,30.57
2023-09-23T07:59:03.676Z,30.13
2023-09-23T08:04:06.894Z,30.22
2023-09-23T08:09:10.686Z,29.65
2023-09-23T08:14:13.901Z,28.77
2023-09-23T08:20:05.276Z,28.76
2023-09-23T08:25:14.072Z,28.07
2023-09-23T08:30:18.006Z,26.73
2023-09-23T08:35:22.136Z,25.77
2023-09-23T08:40:26.518Z,25.35
2023-09-23T08:45:31.645Z,24.52
2023-09-23T08:50:36.011Z,23.27
2023-09-23T08:55:39.926Z,23.01
2023-09-23T09:00:48.092Z,21.25
2023-09-23T09:05:51.496Z,19.70
2023-09-23T09:11:00.043Z,18.01
2023-09-23T09:16:07.365Z,17.48
2023-09-23T09:21:10.609Z,16.66
2023-09-23T09:26:19.980Z,15.91
2023-09-23T09:31:23.718Z,14.43
2023-09-23T09:36:27.186Z,14.12
2023-09-23T09:41:40.444Z,13.19
2023-09-23T09:46:46.512Z,13.41
2023-09-23T09:51:50.950Z,12.78
2023-09-23T09:56:57.506Z,12.64
2023-09-23T10:02:01.766Z,12.15
2023-09-23T10:07:09.048Z,11.77
2023-09-23T10:12:15.782Z,11.56
2023-09-23T10:17:28.639Z,10.67
2023-09-23T10:22:32.081Z,10.18
2023-09-23T10:27:38.275Z,10.54
2023-09-23T10:32:45.193Z,9.92
2023-09-23T10:37:48.465Z,10.43
2023-09-23T10:42:53.351Z,10.46
2023-09-23T10:47:57.585Z,10.60
2023-09-23T10:53:00.789Z,11.21
2023-09-23T10:58:05.657Z,11.73
2023-09-23T11:03:11.274Z,11.32
2023-09-23T11:08:16.022Z,11.77
2023-09-23T11:13:19.566Z,12.10
2023-09-23T11:18:22.890Z,12.36
2023-09-23T11:23:27.915Z,13.54
2023-09-23T11:28:31.383Z,14.65
2023-09-23T11:33:35.133Z,14.19
2023-09-23T11:38:39.214Z,14.51
2023-09-23T11:43:43.829Z,14.77
2023-09-23T11:48:49.845Z,15.55
2023-09-23T11:53:52.977Z,15.70
2023-09-23T11:59:07.300Z,15.79
2023-09-23T12:04:12.609Z,15.91
2023-09-23T12:09:15.957Z,16.20
2023-09-23T12:14:20.816Z,16.38
2023-09-23T12:19:23.976Z,16.28
2023-09-23T12:24:27.061Z,16.47
2023-09-23T12:29:30.286Z,16.95
2023-09-23T12:34:34.105Z,17.87
2023-09-23T12:39:37.485Z,17.37
2023-09-23T12:44:42.674Z,17.89
2023-09-23T12:49:47.148Z,18.20
2023-09-23T12:54:50.091Z,17.95
2023-09-23T12:59:53.066Z,18.88
2023-09-23T13:04:56.168Z,19.39
2023-09-23T13:09:59.364Z,18.91
2023-09-23T13:15:02.498Z,19.09
2023-09-23T13:20:07.418Z,19.23
2023-09-23T13:25:11.077Z,19.18
2023-09-23T13:30:14.569Z,18.94
2023-09-23T13:35:19.028Z,19.18
2023-09-23T13:40:22.140Z,19.85
2023-09-23T13:45:25.837Z,19.59
2023-09-23T13:50:29.029Z,19.82
2023-09-23T13:55:32.245Z,21.01
2023-09-23T14:00:35.626Z,21.60
2023-09-23T14:05:38.812Z,22.59
2023-09-23T14:10:42.064Z,23.33
2023-09-23T14:15:45.179Z,24.34
2023-09-23T14:20:48.395Z,24.81
2023-09-23T14:25:51.542Z,25.20
2023-09-23T14:30:54.790Z,25.51
2023-09-23T14:35:57.981Z,25.01
2023-09-23T14:41:01.193Z,25.65
2023-09-23T14:46:04.457Z,26.20
2023-09-23T14:51:07.804Z,26.42
2023-09-23T14:56:11.972Z,27.63
2023-09-23T15:01:15.533Z,27.38
2023-09-23T15:06:18.629Z,28.53
2023-09-23T15:11:21.804Z,28.87
2023-09-23T15:16:25.076Z,29.52
2023-09-23T15:21:28.781Z,29.87
2023-09-23T15:26:32.029Z,30.70
2023-09-23T15:31:35.305Z,30.95
2023-09-23T15:36:38.523Z,31.51
2023-09-23T15:41:41.686Z,31.95
2023-09-23T15:46:45.526Z,32.20
2023-09-23T15:51:49.603Z,32.75
2023-09-23T15:56:52.747Z,32.93
2023-09-23T16:01:55.962Z,33.58
2023-09-23T16:06:59.028Z,33.80
2023-09-23T16:12:02.221Z,34.29
2023-09-23T16:17:05.430Z,34.74
2023-09-23T16:22:09.518Z,35.21
2023-09-23T16:27:12.822Z,35.46
2023-09-23T16:32:16.062Z,35.62
2023-09-23T16:37:20.011Z,35.43
2023-09-23T16:42:23.154Z,35.69
2023-09-23T16:47:26.715Z,35.52
2023-09-23T16:52:29.872Z,35.39
2023-09-23T16:57:33.222Z,35.98
2023-09-23T17:02:36.533Z,36.20
2023-09-23T17:07:39.754Z,36.40
2023-09-23T17:12:42.843Z,36.52
2023-09-23T17:17:46.053Z,36.86
2023-09-23T17:22:49.547Z,36.99
2023-09-23T17:27:53.051Z,37.48
2023-09-23T17:32:56.379Z,37.48
2023-09-23T17:37:59.672Z,37.32
2023-09-23T17:43:02.857Z,36.93
2023-09-23T17:48:06.298Z,37.02
2023-09-23T17:53:09.494Z,37.40
2023-09-23T17:58:12.657Z,37.45
2023-09-23T18:03:16.693Z,37.73
2023-09-23T18:08:20.037Z,37.07
2023-09-23T18:13:23.185Z,36.75
2023-09-23T18:18:28.593Z,36.55
2023-09-23T18:23:32.532Z,36.46
2023-09-23T18:28:35.878Z,36.31
2023-09-23T18:33:39.193Z,36.52
2023-09-23T18:38:42.464Z,36.34
2023-09-23T18:43:45.994Z,36.38
2023-09-23T18:48:49.609Z,36.15
2023-09-23T18:53:54.290Z,35.32
2023-09-23T18:58:58.308Z,35.00
2023-09-23T19:04:01.853Z,34.92
2023-09-23T19:09:05.695Z,34.68
2023-09-23T19:14:08.862Z,34.67
2023-09-23T19:19:12.445Z,34.19
2023-09-23T19:24:16.411Z,34.18
2023-09-23T19:29:19.655Z,34.15
2023-09-23T19:34:27.928Z,33.93
2023-09-23T19:39:32.783Z,34.17
2023-09-23T19:44:36.133Z,33.97
2023-09-23T19:49:41.114Z,34.06
2023-09-23T19:54:44.480Z,34.27
2023-09-23T19:59:47.633Z,34.10
2023-09-23T20:04:50.831Z,34.10
2023-09-23T20:09:57.037Z,34.49
2023-09-23T20:15:00.194Z,34.43
2023-09-23T20:20:09.999Z,34.40
2023-09-23T20:25:13.426Z,34.71
2023-09-23T20:30:18.031Z,34.70
2023-09-23T20:35:21.693Z,34.99
2023-09-23T20:40:24.818Z,35.02
2023-09-23T20:45:29.526Z,35.53
2023-09-23T20:50:32.738Z,35.34
2023-09-23T20:55:36.016Z,35.85
2023-09-23T21:00:39.220Z,36.36
2023-09-23T21:05:44.013Z,36.67
2023-09-23T21:10:47.234Z,37.01
2023-09-23T21:16:05.997Z,37.80
2023-09-23T21:21:09.246Z,37.65
2023-09-23T21:26:12.425Z,38.11
2023-09-23T21:31:17.262Z,38.52
2023-09-23T21:36:20.435Z,38.66
2023-09-23T21:41:23.553Z,38.64
2023-09-23T21:46:26.836Z,39.22
2023-09-23T21:51:34.996Z,39.40
2023-09-23T21:56:44.358Z,39.73
2023-09-23T22:01:50.562Z,39.81
2023-09-23T22:06:53.818Z,39.90
2023-09-23T22:11:58.264Z,40.27
2023-09-23T22:17:02.056Z,40.78
2023-09-23T22:22:05.140Z,40.79
2023-09-23T22:27:09.984Z,41.10
2023-09-23T22:32:13.572Z,41.09
2023-09-23T22:37:16.669Z,41.55
2023-09-23T22:42:19.815Z,41.97
2023-09-23T22:47:23.066Z,42.14
2023-09-23T22:52:27.377Z,42.28
2023-09-23T22:57:30.598Z,42.56
2023-09-23T23:02:33.762Z,42.83
2023-09-23T23:07:40.020Z,43.03
2023-09-23T23:12:47.781Z,43.57
2023-09-23T23:17:56.343Z,43.86
2023-09-23T23:22:59.510Z,44.13
2023-09-23T23:28:02.614Z,44.40
2023-09-23T23:33:06.198Z,44.62
2023-09-23T23:38:13.159Z,45.04
2023-09-23T23:43:16.260Z,45.44
2023-09-23T23:48:22.431Z,45.60
2023-09-23T23:53:25.714Z,45.82
2023-09-23T23:58:29.037Z,46.76
